Poplar, Wisconsin
Current Conditions -  °F | °C
As of 1:53 PM on Wednesday 17 Dec 2014 (Local Time) from KDYT Reporting Station
Broken Clouds Broken Clouds  
Wind Chill: 21°   Ceiling: 4200
Heat Index: 21°   Visibility: 10mi
Dew Point: 12°   Wind: 0mph
Humidity: 68%   Direction: NA
Pressure: 30.3"   Gusts: NA
Location:  46.58°N, 91.8°W
Report Text: KDYT 171953Z AUTO 00000KT 10SM SCT022 BKN042 M06/M11 A3030 RMK AO2
Loading
Personal Weather Stations






























Interactive Weather Map New forecast layout! Learn more

10-Day Weather Forecast

Advertisements
Track Severe Weather on mobile